createdAt,value
2023-01-26T00:02:18.003Z,23.03
2023-01-26T00:04:46.036Z,23.53
2023-01-26T00:07:15.600Z,22.13
2023-01-26T00:09:43.676Z,20.87
2023-01-26T00:12:11.793Z,20.93
2023-01-26T00:14:51.837Z,21.70
2023-01-26T00:17:26.994Z,21.60
2023-01-26T00:19:59.295Z,20.80
2023-01-26T00:22:29.068Z,22.77
2023-01-26T00:24:57.258Z,22.63
2023-01-26T00:27:25.352Z,21.17
2023-01-26T00:29:53.567Z,21.90
2023-01-26T00:32:22.633Z,21.50
2023-01-26T00:34:50.813Z,20.90
2023-01-26T00:37:18.948Z,21.83
2023-01-26T00:39:48.495Z,20.47
2023-01-26T00:42:16.591Z,20.83
2023-01-26T00:44:44.919Z,20.43
2023-01-26T00:47:15.849Z,21.20
2023-01-26T00:49:44.189Z,21.70
2023-01-26T00:52:13.318Z,21.70
2023-01-26T00:54:41.488Z,22.00
2023-01-26T00:57:11.187Z,23.20
2023-01-26T00:59:39.307Z,23.10
2023-01-26T01:02:07.599Z,23.37
2023-01-26T01:04:35.886Z,23.20
2023-01-26T01:07:03.983Z,24.17
2023-01-26T01:09:33.760Z,24.17
2023-01-26T01:12:01.901Z,23.63
2023-01-26T01:14:31.502Z,23.77
2023-01-26T01:17:00.116Z,24.23
2023-01-26T01:19:28.670Z,25.40
2023-01-26T01:21:56.758Z,25.67
2023-01-26T01:24:25.302Z,24.67
2023-01-26T01:26:53.381Z,26.07
2023-01-26T01:29:22.233Z,25.13
2023-01-26T01:31:51.791Z,22.93
2023-01-26T01:34:20.013Z,23.43
2023-01-26T01:36:48.099Z,24.30
2023-01-26T01:41:43.385Z,24.37
2023-01-26T01:44:17.789Z,23.57
2023-01-26T01:46:52.731Z,23.97
2023-01-26T01:49:24.816Z,23.80
2023-01-26T01:51:57.491Z,24.30
2023-01-26T01:54:31.600Z,25.03
2023-01-26T01:57:04.503Z,24.93
2023-01-26T01:59:33.979Z,26.10
2023-01-26T02:02:04.097Z,25.43
2023-01-26T02:04:32.320Z,26.33
2023-01-26T02:07:04.346Z,24.53
2023-01-26T02:09:54.078Z,26.87
2023-01-26T02:12:31.480Z,27.27
2023-01-26T02:14:59.760Z,27.17
2023-01-26T02:17:29.301Z,27.07
2023-01-26T02:20:08.542Z,25.37
2023-01-26T02:22:47.392Z,23.97
2023-01-26T02:25:25.874Z,23.67
2023-01-26T02:27:55.514Z,24.90
2023-01-26T02:30:24.548Z,25.50
2023-01-26T02:32:52.797Z,24.10
2023-01-26T02:35:21.266Z,24.60
2023-01-26T02:37:49.428Z,25.57
2023-01-26T02:40:26.045Z,26.23
2023-01-26T02:42:55.319Z,26.20
2023-01-26T02:45:24.999Z,27.50
2023-01-26T02:47:53.473Z,27.73
2023-01-26T02:50:20.657Z,26.83
2023-01-26T02:52:48.734Z,26.13
2023-01-26T02:55:29.706Z,25.40
2023-01-26T02:58:01.939Z,25.30
2023-01-26T03:00:35.014Z,26.90
2023-01-26T03:03:03.991Z,27.93
2023-01-26T03:05:32.343Z,26.50
2023-01-26T03:08:01.212Z,26.23
2023-01-26T03:10:36.516Z,26.80
2023-01-26T03:13:06.227Z,26.87
2023-01-26T03:15:43.910Z,26.40
2023-01-26T03:18:32.912Z,24.97
2023-01-26T03:21:19.291Z,24.63
2023-01-26T03:24:05.443Z,23.90
2023-01-26T03:26:52.674Z,26.60
2023-01-26T03:29:23.097Z,25.87
2023-01-26T03:31:52.773Z,25.63
2023-01-26T03:34:21.614Z,26.20
2023-01-26T03:36:50.465Z,26.33
2023-01-26T03:39:37.838Z,25.80
2023-01-26T03:42:25.328Z,26.00
2023-01-26T03:45:12.456Z,25.87
2023-01-26T03:48:00.946Z,26.63
2023-01-26T03:50:48.801Z,25.87
2023-01-26T03:53:37.303Z,26.23
2023-01-26T03:56:22.292Z,26.70
2023-01-26T03:58:54.965Z,27.23
2023-01-26T04:01:28.170Z,29.17
2023-01-26T04:04:16.810Z,28.93
2023-01-26T04:07:05.947Z,29.27
2023-01-26T04:09:36.732Z,29.40
2023-01-26T04:12:05.670Z,29.87
2023-01-26T04:14:55.988Z,27.47
2023-01-26T04:17:44.956Z,26.23
2023-01-26T04:20:32.616Z,24.67
2023-01-26T04:23:00.874Z,24.80
2023-01-26T04:25:29.661Z,26.07
2023-01-26T04:27:58.958Z,27.40
2023-01-26T04:30:27.216Z,26.93
2023-01-26T04:32:56.853Z,27.07
2023-01-26T04:35:25.093Z,27.43
2023-01-26T04:37:53.756Z,28.07
2023-01-26T04:40:21.989Z,29.27
2023-01-26T04:42:51.031Z,28.13
2023-01-26T04:45:19.342Z,29.10
2023-01-26T04:47:48.290Z,27.90
2023-01-26T04:50:19.541Z,22.50
2023-01-26T04:52:48.931Z,23.53
2023-01-26T04:55:17.794Z,22.80
2023-01-26T04:57:46.137Z,23.73
2023-01-26T05:00:15.037Z,24.30
2023-01-26T05:02:43.710Z,24.27
2023-01-26T05:05:12.523Z,24.77
2023-01-26T05:07:42.558Z,27.47
2023-01-26T05:10:15.518Z,27.50
2023-01-26T05:12:53.806Z,27.53
2023-01-26T05:15:28.116Z,29.00
2023-01-26T05:18:15.943Z,30.17
2023-01-26T05:21:02.833Z,28.77
2023-01-26T05:23:40.861Z,28.40
2023-01-26T05:26:09.433Z,28.40
2023-01-26T05:29:00.609Z,27.17
2023-01-26T05:31:28.944Z,26.90
2023-01-26T05:33:57.172Z,28.13
2023-01-26T05:36:25.935Z,27.13
2023-01-26T05:38:56.085Z,26.57
2023-01-26T05:41:26.952Z,25.67
2023-01-26T05:44:30.538Z,26.13
2023-01-26T05:47:05.353Z,27.70
2023-01-26T05:49:33.729Z,26.60
2023-01-26T05:52:02.111Z,26.63
2023-01-26T05:54:32.556Z,25.80
2023-01-26T05:57:01.257Z,25.60
2023-01-26T05:59:29.888Z,25.90
2023-01-26T06:01:58.184Z,27.23
2023-01-26T06:04:27.548Z,26.43
2023-01-26T06:07:00.587Z,26.33
2023-01-26T06:09:34.489Z,25.67
2023-01-26T06:12:02.652Z,25.47
2023-01-26T06:14:49.214Z,25.60
2023-01-26T06:17:19.571Z,27.03
2023-01-26T06:19:50.215Z,26.73
2023-01-26T06:22:18.463Z,26.60
2023-01-26T06:24:51.702Z,26.77
2023-01-26T06:27:20.360Z,26.33
2023-01-26T06:29:50.858Z,24.53
2023-01-26T06:32:19.227Z,23.80
2023-01-26T06:34:53.419Z,22.40
2023-01-26T06:37:22.287Z,23.30
2023-01-26T06:39:53.572Z,23.80
2023-01-26T06:42:21.766Z,23.90
2023-01-26T06:44:49.861Z,22.83
2023-01-26T06:47:18.414Z,23.57
2023-01-26T06:49:46.634Z,23.20
2023-01-26T06:52:32.274Z,23.67
2023-01-26T06:55:06.742Z,25.40
2023-01-26T06:57:47.084Z,24.67
2023-01-26T07:00:54.087Z,25.63
2023-01-26T07:03:30.791Z,27.80
2023-01-26T07:05:59.158Z,25.83
2023-01-26T07:08:27.763Z,24.63
2023-01-26T07:10:57.393Z,23.83
2023-01-26T07:13:25.492Z,24.83
2023-01-26T07:15:53.728Z,26.90
2023-01-26T07:18:21.974Z,26.70
2023-01-26T07:20:50.272Z,26.53
2023-01-26T07:23:18.594Z,27.47
2023-01-26T07:25:46.742Z,27.07
2023-01-26T07:28:16.246Z,27.23
2023-01-26T07:30:44.454Z,26.47
2023-01-26T07:33:12.691Z,27.23
2023-01-26T07:35:40.835Z,28.00
2023-01-26T07:38:09.120Z,27.13
2023-01-26T07:40:37.422Z,27.13
2023-01-26T07:43:05.532Z,26.13
2023-01-26T07:45:53.277Z,26.03
2023-01-26T07:48:23.578Z,28.13
2023-01-26T07:50:52.297Z,27.17
2023-01-26T07:53:23.090Z,27.00
2023-01-26T07:55:51.439Z,29.03
2023-01-26T07:58:19.672Z,27.37
2023-01-26T08:00:48.176Z,27.00
2023-01-26T08:03:17.842Z,27.13
2023-01-26T08:05:47.338Z,28.73
2023-01-26T08:08:15.773Z,28.13
2023-01-26T08:10:44.050Z,28.23
2023-01-26T08:13:12.404Z,26.87
2023-01-26T08:15:40.521Z,27.50
2023-01-26T08:18:08.665Z,27.63
2023-01-26T08:20:38.173Z,26.57
2023-01-26T08:23:06.305Z,26.20
2023-01-26T08:25:34.475Z,26.97
2023-01-26T08:28:03.530Z,27.43
2023-01-26T08:30:31.737Z,27.50
2023-01-26T08:32:59.929Z,28.27
2023-01-26T08:35:32.283Z,27.37
2023-01-26T08:38:04.427Z,28.10
2023-01-26T08:40:32.593Z,27.40
2023-01-26T08:43:02.807Z,26.20
2023-01-26T08:45:35.210Z,26.43
2023-01-26T08:48:04.301Z,26.63
2023-01-26T08:50:32.355Z,26.43
2023-01-26T08:53:00.489Z,26.67
2023-01-26T08:55:30.236Z,26.37
2023-01-26T08:57:58.853Z,28.30
2023-01-26T09:00:27.029Z,26.07
2023-01-26T09:03:00.665Z,25.97
2023-01-26T09:05:29.343Z,26.00
2023-01-26T09:07:57.436Z,26.50
2023-01-26T09:10:25.661Z,26.03
2023-01-26T09:12:55.187Z,25.03
2023-01-26T09:15:23.451Z,24.47
2023-01-26T09:17:52.323Z,25.67
2023-01-26T09:20:21.865Z,25.67
2023-01-26T09:22:50.093Z,25.57
2023-01-26T09:25:18.456Z,25.07
2023-01-26T09:27:46.964Z,25.17
2023-01-26T09:30:17.655Z,24.93
2023-01-26T09:32:45.823Z,24.70
2023-01-26T09:35:15.139Z,25.60
2023-01-26T09:37:45.104Z,27.70
2023-01-26T09:40:19.296Z,27.00
2023-01-26T09:43:06.418Z,27.23
2023-01-26T09:45:42.565Z,26.80
2023-01-26T09:48:25.414Z,26.57
2023-01-26T09:51:02.830Z,26.07
2023-01-26T09:53:41.168Z,27.40
2023-01-26T09:56:19.053Z,26.47
2023-01-26T09:58:53.613Z,26.83
2023-01-26T10:01:29.127Z,26.10
2023-01-26T10:04:05.815Z,26.33
2023-01-26T10:06:34.943Z,26.83
2023-01-26T10:09:14.778Z,24.50
2023-01-26T10:11:46.100Z,23.97
2023-01-26T10:14:17.305Z,23.83
2023-01-26T10:16:50.169Z,24.27
2023-01-26T10:19:28.692Z,22.63
2023-01-26T10:22:00.553Z,24.10
2023-01-26T10:24:29.360Z,24.43
2023-01-26T10:26:59.442Z,23.83
2023-01-26T10:29:27.668Z,23.73
2023-01-26T10:31:57.160Z,25.17
2023-01-26T10:34:27.404Z,24.63
2023-01-26T10:37:03.285Z,24.77
2023-01-26T10:39:31.431Z,23.13
2023-01-26T10:42:01.303Z,21.40
2023-01-26T10:44:34.596Z,22.30
2023-01-26T10:47:15.883Z,22.37
2023-01-26T10:49:45.053Z,22.50
2023-01-26T10:52:18.626Z,22.40
2023-01-26T10:54:47.299Z,22.53
2023-01-26T10:57:19.686Z,21.77
2023-01-26T10:59:54.051Z,22.20
2023-01-26T11:02:28.046Z,20.80
2023-01-26T11:05:16.949Z,21.00
2023-01-26T11:07:47.008Z,22.30
2023-01-26T11:10:21.081Z,22.13
2023-01-26T11:12:49.768Z,21.47
2023-01-26T11:15:20.221Z,21.27
2023-01-26T11:18:00.852Z,20.47
2023-01-26T11:20:49.431Z,20.67
2023-01-26T11:23:28.019Z,21.03
2023-01-26T11:26:15.454Z,20.83
2023-01-26T11:28:55.561Z,20.80
2023-01-26T11:31:38.107Z,19.97
2023-01-26T11:34:24.770Z,20.03
2023-01-26T11:37:03.066Z,20.87
2023-01-26T11:39:41.005Z,20.63
2023-01-26T11:42:25.316Z,22.00
2023-01-26T11:45:16.604Z,21.93
2023-01-26T11:48:01.460Z,21.37
2023-01-26T11:50:36.512Z,21.23
2023-01-26T11:53:24.118Z,20.33
2023-01-26T11:56:08.098Z,20.30
2023-01-26T11:58:41.207Z,20.57
2023-01-26T12:01:17.019Z,20.20
2023-01-26T12:03:48.971Z,20.77
2023-01-26T12:06:20.517Z,20.93
2023-01-26T12:08:53.430Z,20.63
2023-01-26T12:11:27.496Z,21.20
2023-01-26T12:14:05.621Z,21.17
2023-01-26T12:16:45.984Z,21.43
2023-01-26T12:19:23.633Z,21.00
2023-01-26T12:22:04.278Z,19.53
2023-01-26T12:25:12.271Z,20.10
2023-01-26T12:27:40.071Z,20.43
2023-01-26T12:30:22.930Z,19.40
2023-01-26T12:32:51.415Z,20.90
2023-01-26T12:35:28.806Z,19.83
2023-01-26T12:38:16.877Z,21.17
2023-01-26T12:40:53.847Z,21.27
2023-01-26T12:43:38.997Z,21.33
2023-01-26T12:46:09.267Z,22.33
2023-01-26T12:48:43.327Z,22.20
2023-01-26T12:51:16.866Z,21.87
2023-01-26T12:53:57.381Z,21.73
2023-01-26T12:56:31.918Z,20.67
2023-01-26T12:59:05.226Z,20.33
2023-01-26T13:01:41.032Z,19.70
2023-01-26T13:04:12.655Z,21.23
2023-01-26T13:06:40.961Z,20.77
2023-01-26T13:09:25.296Z,19.97
2023-01-26T13:11:56.217Z,21.03
2023-01-26T13:14:27.454Z,19.23
2023-01-26T13:16:55.777Z,19.83
2023-01-26T13:19:38.424Z,20.27
2023-01-26T13:22:42.874Z,20.10
2023-01-26T13:25:18.781Z,20.13
2023-01-26T13:27:48.588Z,20.60
2023-01-26T13:30:39.882Z,18.90
2023-01-26T13:33:18.855Z,20.27
2023-01-26T13:35:47.910Z,21.50
2023-01-26T13:38:21.484Z,20.07
2023-01-26T13:40:51.097Z,20.20
2023-01-26T13:43:28.281Z,21.23
2023-01-26T13:46:05.039Z,20.60
2023-01-26T13:48:48.153Z,21.33
2023-01-26T13:51:21.916Z,20.90
2023-01-26T13:53:57.943Z,22.33
2023-01-26T13:56:29.171Z,22.80
2023-01-26T13:59:06.153Z,21.80
2023-01-26T14:01:34.987Z,21.90
2023-01-26T14:04:04.891Z,23.83
2023-01-26T14:06:33.862Z,22.13
2023-01-26T14:09:05.430Z,22.97
2023-01-26T14:11:35.032Z,21.73
2023-01-26T14:14:03.925Z,22.00
2023-01-26T14:16:34.369Z,20.93
2023-01-26T14:19:07.801Z,20.40
2023-01-26T14:21:47.555Z,21.03
2023-01-26T14:24:17.213Z,22.50
2023-01-26T14:26:45.785Z,22.23
2023-01-26T14:29:20.156Z,21.50
2023-01-26T14:31:49.368Z,22.87
2023-01-26T14:34:22.706Z,22.37
2023-01-26T14:37:05.514Z,23.13
2023-01-26T14:39:35.121Z,22.17
2023-01-26T14:42:04.265Z,21.70
2023-01-26T14:44:32.548Z,21.70
2023-01-26T14:47:06.118Z,22.13
2023-01-26T14:49:44.832Z,23.73
2023-01-26T14:52:23.985Z,22.90
2023-01-26T14:54:55.561Z,21.93
2023-01-26T14:57:26.509Z,22.03
2023-01-26T14:59:57.980Z,22.43
2023-01-26T15:02:28.437Z,23.70
2023-01-26T15:05:01.121Z,23.20
2023-01-26T15:07:37.799Z,24.03
2023-01-26T15:10:28.289Z,23.70
2023-01-26T15:13:01.337Z,22.97
2023-01-26T15:15:31.453Z,23.70
2023-01-26T15:18:05.227Z,26.07
2023-01-26T15:20:41.484Z,26.23
2023-01-26T15:23:27.226Z,25.10
2023-01-26T15:26:04.614Z,23.57
2023-01-26T15:28:34.715Z,24.20
2023-01-26T15:31:03.253Z,23.13
2023-01-26T15:33:50.463Z,23.53
2023-01-26T15:36:32.649Z,25.13
2023-01-26T15:39:11.945Z,24.17
2023-01-26T15:41:42.169Z,26.10
2023-01-26T15:44:16.532Z,27.00
2023-01-26T15:46:44.958Z,26.90
2023-01-26T15:49:13.130Z,26.70
2023-01-26T15:51:41.441Z,28.03
2023-01-26T15:54:12.284Z,26.70
2023-01-26T15:56:41.782Z,25.40
2023-01-26T15:59:09.899Z,27.23
2023-01-26T16:01:38.031Z,27.13
2023-01-26T16:04:06.379Z,27.30
2023-01-26T16:06:35.995Z,27.80
2023-01-26T16:09:04.259Z,26.83
2023-01-26T16:11:36.272Z,27.57
2023-01-26T16:14:07.894Z,27.60
2023-01-26T16:16:36.099Z,28.10
2023-01-26T16:19:04.363Z,26.27
2023-01-26T16:21:35.529Z,27.23
2023-01-26T16:24:04.483Z,27.57
2023-01-26T16:26:33.163Z,26.90
2023-01-26T16:29:01.320Z,27.73
2023-01-26T16:31:33.268Z,27.37
2023-01-26T16:34:02.184Z,27.70
2023-01-26T16:36:30.362Z,27.87
2023-01-26T16:38:58.497Z,25.53
2023-01-26T16:41:28.341Z,26.63
2023-01-26T16:43:58.060Z,27.27
2023-01-26T16:46:26.597Z,28.70
2023-01-26T16:48:56.430Z,29.83
2023-01-26T16:51:27.749Z,30.53
2023-01-26T16:53:57.078Z,30.60
2023-01-26T16:56:26.413Z,29.87
2023-01-26T16:58:54.712Z,31.40
2023-01-26T17:01:25.407Z,30.23
2023-01-26T17:03:56.206Z,30.50
2023-01-26T17:06:24.989Z,30.93
2023-01-26T17:08:53.193Z,31.87
2023-01-26T17:11:24.374Z,30.63
2023-01-26T17:13:53.666Z,30.60
2023-01-26T17:16:25.307Z,29.80
2023-01-26T17:18:55.120Z,29.50
2023-01-26T17:21:24.173Z,29.67
2023-01-26T17:23:53.200Z,30.73
2023-01-26T17:26:22.371Z,29.60
2023-01-26T17:28:54.456Z,32.20
2023-01-26T17:31:24.109Z,31.87
2023-01-26T17:33:53.048Z,30.80
2023-01-26T17:36:22.585Z,31.83
2023-01-26T17:38:51.006Z,30.00
2023-01-26T17:41:19.183Z,31.03
2023-01-26T17:43:47.839Z,30.93
2023-01-26T17:46:17.611Z,30.63
2023-01-26T17:48:46.704Z,31.53
2023-01-26T17:51:16.773Z,31.53
2023-01-26T17:53:49.621Z,32.67
2023-01-26T17:56:19.338Z,32.67
2023-01-26T17:58:49.850Z,34.80
2023-01-26T18:01:18.408Z,33.33
2023-01-26T18:03:46.817Z,35.40
2023-01-26T18:06:15.632Z,35.20
2023-01-26T18:08:43.904Z,36.17
2023-01-26T18:11:15.288Z,35.00
2023-01-26T18:13:43.959Z,34.00
2023-01-26T18:16:16.192Z,34.53
2023-01-26T18:18:44.891Z,36.83
2023-01-26T18:21:16.649Z,36.40
2023-01-26T18:23:46.207Z,37.63
2023-01-26T18:26:16.991Z,37.13
2023-01-26T18:28:46.024Z,38.77
2023-01-26T18:31:16.362Z,38.00
2023-01-26T18:33:44.772Z,39.90
2023-01-26T18:36:15.523Z,41.40
2023-01-26T18:38:45.280Z,40.10
2023-01-26T18:41:16.406Z,37.73
2023-01-26T18:43:46.988Z,38.23
2023-01-26T18:46:15.732Z,37.87
2023-01-26T18:48:44.206Z,35.53
2023-01-26T18:51:12.697Z,36.20
2023-01-26T18:53:41.085Z,36.57
2023-01-26T18:56:11.190Z,35.90
2023-01-26T18:58:41.297Z,37.03
2023-01-26T19:01:13.774Z,36.83
2023-01-26T19:03:47.343Z,36.73
2023-01-26T19:06:20.031Z,35.70
2023-01-26T19:08:55.510Z,35.47
2023-01-26T19:11:23.700Z,37.60
2023-01-26T19:13:53.178Z,35.37
2023-01-26T19:16:21.312Z,36.47
2023-01-26T19:18:50.059Z,36.53
2023-01-26T19:21:21.768Z,37.73
2023-01-26T19:23:50.314Z,39.13
2023-01-26T19:26:20.940Z,40.17
2023-01-26T19:28:51.035Z,41.10
2023-01-26T19:31:21.231Z,41.37
2023-01-26T19:33:52.820Z,40.00
2023-01-26T19:36:21.552Z,41.10
2023-01-26T19:38:49.611Z,41.03
2023-01-26T19:41:18.845Z,37.57
2023-01-26T19:43:47.004Z,40.13
2023-01-26T19:46:16.524Z,38.33
2023-01-26T19:48:46.296Z,37.83
2023-01-26T19:51:16.825Z,36.20
2023-01-26T19:53:46.426Z,37.13
2023-01-26T19:56:16.462Z,36.80
2023-01-26T19:58:45.133Z,37.50
2023-01-26T20:01:13.804Z,37.87
2023-01-26T20:03:41.969Z,37.17
2023-01-26T20:06:17.276Z,37.10
2023-01-26T20:08:45.629Z,38.80
2023-01-26T20:11:14.225Z,39.47
2023-01-26T20:13:42.343Z,38.77
2023-01-26T20:16:11.709Z,39.07
2023-01-26T20:18:40.006Z,39.27
2023-01-26T20:21:08.331Z,40.23
2023-01-26T20:23:43.359Z,38.13
2023-01-26T20:26:17.912Z,38.60
2023-01-26T20:28:46.758Z,39.17
2023-01-26T20:31:18.211Z,37.70
2023-01-26T20:33:49.076Z,38.07
2023-01-26T20:36:19.144Z,38.97
2023-01-26T20:38:49.846Z,38.50
2023-01-26T20:41:19.944Z,40.07
2023-01-26T20:44:03.519Z,41.03
2023-01-26T20:46:34.210Z,41.33
2023-01-26T20:49:09.674Z,42.07
2023-01-26T20:51:42.697Z,43.87
2023-01-26T20:54:19.325Z,42.67
2023-01-26T20:56:49.952Z,42.40
2023-01-26T20:59:19.194Z,43.63
2023-01-26T21:01:47.347Z,43.10
2023-01-26T21:04:15.458Z,44.73
2023-01-26T21:06:43.647Z,42.70
2023-01-26T21:09:13.215Z,42.17
2023-01-26T21:11:41.592Z,42.37
2023-01-26T21:14:13.459Z,44.33
2023-01-26T21:16:41.769Z,43.63
2023-01-26T21:19:09.920Z,44.07
2023-01-26T21:21:38.028Z,45.23
2023-01-26T21:24:06.666Z,46.43
2023-01-26T21:26:36.106Z,45.53
2023-01-26T21:29:05.530Z,57.50
2023-01-26T21:31:35.277Z,44.77
2023-01-26T21:34:03.425Z,45.37
2023-01-26T21:36:32.910Z,45.30
2023-01-26T21:39:02.314Z,47.27
2023-01-26T21:41:50.108Z,46.70
2023-01-26T21:44:22.002Z,47.57
2023-01-26T21:46:52.039Z,47.27
2023-01-26T21:49:20.600Z,48.17
2023-01-26T21:52:06.509Z,47.90
2023-01-26T21:54:34.818Z,47.80
2023-01-26T21:57:04.080Z,50.83
2023-01-26T21:59:32.621Z,49.10
2023-01-26T22:02:00.804Z,49.10
2023-01-26T22:04:30.676Z,48.03
2023-01-26T22:06:59.842Z,46.80
2023-01-26T22:09:28.458Z,48.00
2023-01-26T22:11:56.642Z,48.63
2023-01-26T22:14:26.247Z,47.83
2023-01-26T22:16:55.773Z,48.33
2023-01-26T22:19:23.901Z,49.63
2023-01-26T22:21:51.953Z,51.10
2023-01-26T22:24:20.340Z,50.40
2023-01-26T22:26:48.933Z,50.57
2023-01-26T22:29:17.035Z,51.07
2023-01-26T22:31:45.743Z,50.33
2023-01-26T22:34:15.208Z,50.27
2023-01-26T22:36:43.470Z,50.80
2023-01-26T22:39:12.350Z,49.10
2023-01-26T22:41:40.685Z,51.10
2023-01-26T22:44:09.206Z,51.07
2023-01-26T22:46:38.066Z,51.27
2023-01-26T22:49:06.115Z,51.27
2023-01-26T22:51:37.522Z,51.80
2023-01-26T22:54:06.584Z,50.43
2023-01-26T22:56:35.190Z,50.57
2023-01-26T22:59:03.308Z,50.70
2023-01-26T23:01:33.894Z,48.67
2023-01-26T23:04:02.836Z,52.50
2023-01-26T23:06:31.326Z,51.60
2023-01-26T23:09:04.656Z,51.53
2023-01-26T23:11:32.897Z,50.50
2023-01-26T23:14:01.601Z,51.60
2023-01-26T23:16:30.351Z,50.97
2023-01-26T23:18:59.796Z,52.60
2023-01-26T23:21:29.596Z,54.63
2023-01-26T23:23:58.002Z,54.33
2023-01-26T23:26:27.743Z,56.03
2023-01-26T23:28:55.876Z,55.90
2023-01-26T23:31:24.206Z,55.73
2023-01-26T23:33:52.520Z,55.97
2023-01-26T23:36:21.053Z,53.87
2023-01-26T23:38:49.126Z,56.60
2023-01-26T23:41:17.749Z,54.87
2023-01-26T23:43:47.354Z,55.97
2023-01-26T23:46:15.619Z,54.73
2023-01-26T23:48:43.721Z,54.43
2023-01-26T23:51:12.914Z,51.97
2023-01-26T23:53:41.348Z,49.83
2023-01-26T23:56:11.044Z,49.63
2023-01-26T23:58:39.373Z,50.90
